Time;durP1;ratioP1;P1;durP2;ratioP2;P2;SDS_P1;SDS_P2;PMS_P1;PMS_P2;Temp;Humidity;BMP_temperature;BMP_pressure;BME280_temperature;BME280_humidity;BME280_pressure;Samples;Min_cycle;Max_cycle;Signal;HPM_P1;HPM_P2
2021/12/11 00:01:10;;;;;;;36.65;24.25;;;;;;;1.21;93.75;100491.75;5069581;28;20059;-71
2021/12/11 00:03:40;;;;;;;34.83;24.75;;;;;;;1.17;93.90;100491.97;5067285;28;20176;-71
2021/12/11 00:06:09;;;;;;;40.08;25.95;;;;;;;1.17;93.37;100505.06;5052806;28;20324;-71
2021/12/11 00:08:35;;;;;;;35.90;24.48;;;;;;;1.15;94.03;100510.34;5072312;28;20056;-71
2021/12/11 00:11:07;;;;;;;41.75;26.33;;;;;;;1.12;93.67;100515.69;5042363;28;20037;-71
2021/12/11 00:13:36;;;;;;;40.97;27.48;;;;;;;1.09;93.65;100516.66;5059821;28;20032;-71
2021/12/11 00:16:03;;;;;;;38.15;25.65;;;;;;;1.09;93.88;100521.06;5069825;28;20029;-70
2021/12/11 00:18:29;;;;;;;40.97;28.33;;;;;;;1.09;94.21;100528.91;5047870;28;20028;-71
2021/12/11 00:21:03;;;;;;;41.95;29.20;;;;;;;1.07;94.30;100533.34;5059060;28;20035;-71
2021/12/11 00:23:34;;;;;;;41.45;26.60;;;;;;;1.06;94.27;100532.47;5055758;28;20076;-70
2021/12/11 00:26:00;;;;;;;40.45;27.08;;;;;;;1.05;94.03;100541.25;5070818;28;20112;-71
2021/12/11 00:28:26;;;;;;;40.80;28.15;;;;;;;1.04;94.32;100549.19;5071639;28;20387;-71
2021/12/11 00:30:52;;;;;;;40.95;27.30;;;;;;;1.00;94.24;100548.47;5054943;28;20029;-71
2021/12/11 00:33:21;;;;;;;38.40;27.02;;;;;;;0.99;94.28;100548.53;5060919;28;20036;-71
2021/12/11 00:35:47;;;;;;;41.97;27.70;;;;;;;0.99;94.19;100559.81;5057787;28;20092;-70
2021/12/11 00:38:34;;;;;;;42.50;27.60;;;;;;;1.00;94.52;100563.28;5071720;28;20025;-71
2021/12/11 00:41:02;;;;;;;41.47;27.60;;;;;;;0.97;94.31;100564.28;5063979;28;20032;-70
2021/12/11 00:43:30;;;;;;;41.60;28.57;;;;;;;0.97;94.24;100579.13;5071940;28;20073;-70
2021/12/11 00:45:57;;;;;;;42.03;27.75;;;;;;;0.96;94.12;100580.03;5057622;28;20489;-70
2021/12/11 00:48:25;;;;;;;47.78;29.63;;;;;;;0.94;94.87;100585.31;5057778;28;20406;-70
2021/12/11 00:50:58;;;;;;;41.13;29.47;;;;;;;0.94;94.52;100584.47;5052095;28;20056;-70
2021/12/11 00:53:39;;;;;;;42.13;28.30;;;;;;;0.94;94.22;100585.31;5051817;28;20040;-70
2021/12/11 00:56:18;;;;;;;43.38;27.38;;;;;;;0.93;94.46;100588.81;5050681;28;20021;-70
2021/12/11 00:58:44;;;;;;;39.15;26.45;;;;;;;0.89;94.20;100595.09;5031848;28;20030;-70
2021/12/11 01:01:27;;;;;;;41.63;26.95;;;;;;;0.88;93.99;100604.72;5031727;28;20089;-70
2021/12/11 01:04:03;;;;;;;38.83;27.17;;;;;;;0.87;94.21;100600.41;5052867;28;20050;-70
2021/12/11 01:06:40;;;;;;;41.90;27.88;;;;;;;0.85;94.33;100611.81;5060848;28;20029;-70
2021/12/11 01:09:13;;;;;;;39.88;26.27;;;;;;;0.86;94.60;100614.38;5053217;28;20517;-70
2021/12/11 01:11:47;;;;;;;42.47;28.88;;;;;;;0.82;94.01;100618.03;5071337;28;20021;-70
2021/12/11 01:14:35;;;;;;;42.35;28.02;;;;;;;0.80;93.88;100621.59;5057127;28;20295;-70
2021/12/11 01:17:12;;;;;;;42.70;27.92;;;;;;;0.76;94.03;100627.88;5043339;28;20086;-70
2021/12/11 01:19:41;;;;;;;43.53;28.98;;;;;;;0.76;94.19;100638.34;5037935;28;20043;-70
2021/12/11 01:22:23;;;;;;;50.70;29.13;;;;;;;0.76;94.56;100639.19;5053159;28;20107;-70
2021/12/11 01:24:52;;;;;;;46.05;29.02;;;;;;;0.73;94.19;100641.91;5058185;28;20119;-70
2021/12/11 01:27:22;;;;;;;44.03;27.77;;;;;;;0.70;93.94;100644.63;5071437;28;20026;-70
2021/12/11 01:29:50;;;;;;;47.60;29.30;;;;;;;0.67;94.11;100644.78;5043452;28;20052;-70
2021/12/11 01:32:16;;;;;;;45.13;29.98;;;;;;;0.69;94.72;100653.41;5070120;28;20096;-70
2021/12/11 01:34:43;;;;;;;45.28;30.23;;;;;;;0.67;94.68;100665.69;5038058;28;20510;-70
2021/12/11 01:37:09;;;;;;;49.05;29.83;;;;;;;0.67;95.27;100670.94;5061606;28;20025;-70
2021/12/11 01:39:37;;;;;;;46.67;29.38;;;;;;;0.66;95.49;100679.66;5070757;28;20039;-70
2021/12/11 01:42:09;;;;;;;41.10;28.15;;;;;;;0.65;95.29;100683.19;5065525;28;20161;-70
2021/12/11 01:44:38;;;;;;;40.15;27.77;;;;;;;0.62;94.74;100685.94;5048607;28;20240;-70
2021/12/11 01:47:10;;;;;;;40.35;25.98;;;;;;;0.64;95.03;100691.94;5070597;28;20112;-70
2021/12/11 01:49:39;;;;;;;45.10;28.02;;;;;;;0.58;94.86;100695.63;5070736;28;20478;-70
2021/12/11 01:52:15;;;;;;;;;;;;;;;0.67;94.46;100705.75;5049886;28;20060;-70
2021/12/11 01:54:44;;;;;;;46.67;26.92;;;;;;;0.58;94.50;100708.69;5056387;28;19908;-70
2021/12/11 01:57:22;;;;;;;45.33;28.27;;;;;;;0.57;94.83;100721.81;5058910;28;20137;-70
2021/12/11 01:59:53;;;;;;;45.90;29.70;;;;;;;0.57;94.33;100735.75;5042618;28;20054;-70
2021/12/11 02:02:34;;;;;;;44.95;29.48;;;;;;;0.59;94.75;100743.53;5056897;28;20355;-69
2021/12/11 02:05:00;;;;;;;47.55;28.95;;;;;;;0.59;95.08;100754.84;5068876;28;20033;-70
2021/12/11 02:07:31;;;;;;;46.25;28.02;;;;;;;0.61;95.49;100746.94;5063412;28;20372;-70
2021/12/11 02:09:59;;;;;;;45.92;29.25;;;;;;;0.64;95.43;100757.28;5063048;28;20090;-70
2021/12/11 02:12:39;;;;;;;47.95;28.85;;;;;;;0.63;95.57;100759.03;5058709;28;20398;-70
2021/12/11 02:15:09;;;;;;;;;;;;;;;0.69;95.23;100755.34;5060866;28;20028;-70
2021/12/11 02:17:46;;;;;;;42.60;27.25;;;;;;;0.65;95.46;100753.75;5068821;28;19909;-70
2021/12/11 02:20:19;;;;;;;42.63;27.23;;;;;;;0.66;95.28;100758.06;5065259;28;20036;-70
2021/12/11 02:22:48;;;;;;;44.50;28.52;;;;;;;0.67;95.62;100755.41;5066286;28;20544;-70
2021/12/11 02:25:24;;;;;;;44.58;28.88;;;;;;;0.69;95.64;100765.81;5054665;28;20108;-70
2021/12/11 02:28:02;;;;;;;43.72;27.52;;;;;;;0.70;96.33;100772.72;5060810;28;20411;-71
2021/12/11 02:31:04;;;;;;;49.35;29.42;;;;;;;0.73;96.20;100785.69;5047562;28;20394;-70
2021/12/11 02:33:38;;;;;;;44.30;26.60;;;;;;;0.71;96.06;100792.75;5052724;28;20086;-70
2021/12/11 02:36:11;;;;;;;41.72;26.10;;;;;;;0.73;95.70;100801.38;5055777;28;20032;-70
2021/12/11 02:38:44;;;;;;;45.45;28.13;;;;;;;0.68;96.03;100790.22;5048308;28;20407;-71
2021/12/11 02:41:24;;;;;;;43.83;27.05;;;;;;;0.74;96.41;100805.72;5065946;28;20060;-70
2021/12/11 02:43:57;;;;;;;47.50;28.52;;;;;;;0.74;95.90;100805.72;5064306;28;20391;-70
2021/12/11 02:46:35;;;;;;;44.30;26.38;;;;;;;0.73;96.20;100804.88;5052391;28;20348;-70
2021/12/11 02:49:10;;;;;;;41.22;26.33;;;;;;;0.71;96.03;100814.50;5056114;28;20031;-70
2021/12/11 02:51:48;;;;;;;42.83;26.55;;;;;;;0.74;95.79;100816.16;5067181;28;20597;-70
2021/12/11 02:54:26;;;;;;;41.38;26.00;;;;;;;0.74;95.70;100813.53;5047758;28;20049;-70
2021/12/11 02:56:57;;;;;;;39.78;25.30;;;;;;;0.74;96.02;100818.78;5048836;28;20475;-70
2021/12/11 02:59:26;;;;;;;44.97;27.35;;;;;;;0.76;96.43;100830.03;5073822;28;20035;-70
2021/12/11 03:01:56;;;;;;;42.97;26.95;;;;;;;0.72;96.31;100834.50;5058114;28;20497;-70
2021/12/11 03:04:34;;;;;;;44.75;27.90;;;;;;;0.73;95.72;100830.13;5066639;28;20052;-70
2021/12/11 03:07:02;;;;;;;44.63;27.25;;;;;;;0.74;96.18;100831.84;5047104;28;20383;-70
2021/12/11 03:09:30;;;;;;;41.45;26.58;;;;;;;0.74;95.93;100840.53;5073469;28;20306;-70
2021/12/11 03:12:01;;;;;;;40.17;25.85;;;;;;;0.74;95.65;100839.69;5072093;28;20664;-70
2021/12/11 03:14:27;;;;;;;43.00;25.75;;;;;;;0.73;95.99;100849.31;5059436;28;20043;-70
2021/12/11 03:16:54;;;;;;;41.22;27.45;;;;;;;0.72;95.64;100841.50;5062712;28;20506;-70
2021/12/11 03:19:25;;;;;;;42.55;27.02;;;;;;;0.74;95.75;100850.16;5063923;28;20036;-70
2021/12/11 03:21:52;;;;;;;44.80;29.08;;;;;;;0.76;95.94;100852.72;5069678;28;20051;-70
2021/12/11 03:24:18;;;;;;;40.25;26.48;;;;;;;0.75;95.95;100854.47;5060277;28;20025;-70
2021/12/11 03:26:46;;;;;;;45.58;28.40;;;;;;;0.74;96.22;100861.44;5062047;28;20099;-70
2021/12/11 03:29:13;;;;;;;44.92;28.17;;;;;;;0.76;95.82;100861.41;5067039;28;20514;-70
2021/12/11 03:31:39;;;;;;;44.20;27.23;;;;;;;0.77;96.54;100868.34;5064462;28;20364;-70
2021/12/11 03:34:08;;;;;;;41.63;26.70;;;;;;;0.76;96.04;100865.78;5057920;28;20032;-70
2021/12/11 03:36:35;;;;;;;40.38;26.30;;;;;;;0.77;95.94;100870.97;5073150;28;20028;-71
2021/12/11 03:39:08;;;;;;;42.72;28.42;;;;;;;0.78;96.01;100880.50;5073178;28;20012;-71
2021/12/11 03:41:34;;;;;;;39.63;26.27;;;;;;;0.78;95.95;100877.03;5055220;28;20038;-71
2021/12/11 03:43:59;;;;;;;41.67;27.10;;;;;;;0.80;96.05;100870.84;5062752;28;20025;-71
2021/12/11 03:46:25;;;;;;;46.80;27.38;;;;;;;0.80;96.23;100869.97;5072695;28;20070;-71
2021/12/11 03:48:54;;;;;;;41.58;27.45;;;;;;;0.82;96.27;100870.81;5056848;28;20046;-71
2021/12/11 03:51:26;;;;;;;44.08;27.98;;;;;;;0.84;96.65;100882.06;5071224;28;20016;-71
2021/12/11 03:53:52;;;;;;;44.53;27.85;;;;;;;0.84;96.57;100882.06;5054539;28;20052;-71
2021/12/11 03:56:18;;;;;;;42.28;27.42;;;;;;;0.84;96.83;100884.66;5061769;28;20025;-70
2021/12/11 03:58:49;;;;;;;44.58;29.15;;;;;;;0.86;96.41;100880.22;5062878;28;20429;-71
2021/12/11 04:01:34;;;;;;;41.53;27.13;;;;;;;0.88;97.02;100888.88;5065373;28;20419;-71
2021/12/11 04:04:04;;;;;;;46.35;28.63;;;;;;;0.87;97.17;100890.63;5072450;28;20025;-71
2021/12/11 04:06:30;;;;;;;45.35;27.77;;;;;;;0.90;97.23;100887.91;5072436;28;20029;-71
2021/12/11 04:08:56;;;;;;;46.63;28.20;;;;;;;0.93;97.57;100886.94;5036755;28;20069;-71
2021/12/11 04:11:30;;;;;;;42.08;28.17;;;;;;;0.92;97.10;100896.56;5032306;28;20033;-71
2021/12/11 04:14:00;;;;;;;49.97;28.45;;;;;;;0.95;97.22;100905.19;5032518;28;20040;-71
2021/12/11 04:16:26;;;;;;;49.42;27.98;;;;;;;0.97;97.40;100906.84;5032464;28;20044;-71
2021/12/11 04:18:52;;;;;;;46.22;28.52;;;;;;;0.97;97.49;100912.09;5032430;28;20532;-71
2021/12/11 04:21:18;;;;;;;47.38;29.95;;;;;;;1.00;97.54;100914.59;5032447;28;20025;-71
2021/12/11 04:23:45;;;;;;;44.40;28.88;;;;;;;1.00;97.57;100917.22;5032728;28;20033;-71
2021/12/11 04:26:10;;;;;;;47.17;29.65;;;;;;;1.02;97.73;100927.63;5032177;28;20023;-70
2021/12/11 04:28:38;;;;;;;47.10;27.85;;;;;;;1.04;97.67;100924.03;5031963;28;20394;-70
2021/12/11 04:31:08;;;;;;;49.40;28.95;;;;;;;1.04;97.71;100929.25;5032285;28;20104;-70
2021/12/11 04:33:38;;;;;;;48.55;29.42;;;;;;;1.07;98.16;100929.16;5032085;28;20061;-70
2021/12/11 04:36:09;;;;;;;47.70;29.13;;;;;;;1.09;98.32;100923.88;5032227;28;20494;-69
2021/12/11 04:38:35;;;;;;;47.53;29.50;;;;;;;1.10;98.00;100928.22;5032219;28;20081;-69
2021/12/11 04:41:02;;;;;;;46.30;28.27;;;;;;;1.11;98.26;100935.97;5032036;28;20471;-69
2021/12/11 04:43:27;;;;;;;50.42;29.40;;;;;;;1.13;98.48;100942.91;5031971;28;20033;-69
2021/12/11 04:46:05;;;;;;;46.97;28.25;;;;;;;1.13;98.62;100942.91;5031675;28;20108;-69
2021/12/11 04:48:52;;;;;;;52.50;28.70;;;;;;;1.14;98.28;100955.94;5031913;28;20032;-69
2021/12/11 04:51:27;;;;;;;45.70;28.27;;;;;;;1.15;98.15;100957.66;5032143;28;20025;-69
2021/12/11 04:54:46;;;;;;;45.40;28.70;;;;;;;1.15;98.18;100959.41;5043934;28;20116;-68
2021/12/11 04:57:05;;;;;;;45.33;27.80;;;;;;;1.17;98.61;100974.16;5045877;28;20120;-68
2021/12/11 05:07:42;;;;;;;43.50;26.60;;;;;;;1.23;98.70;100971.34;5071315;28;20489;-68
2021/12/11 05:10:29;;;;;;;42.50;26.88;;;;;;;1.23;98.80;100976.56;5045619;28;20094;-68
2021/12/11 05:12:58;;;;;;;45.35;26.73;;;;;;;1.25;98.86;100986.94;5062268;28;20029;-68
2021/12/11 05:15:28;;;;;;;43.83;25.73;;;;;;;1.27;98.57;100988.63;5070139;28;20021;-69
2021/12/11 05:17:54;;;;;;;44.95;26.70;;;;;;;1.31;98.67;100996.38;5071171;28;20017;-68
2021/12/11 05:20:23;;;;;;;43.20;26.90;;;;;;;1.29;98.92;100991.19;5054388;28;20017;-68
2021/12/11 05:22:49;;;;;;;45.42;25.92;;;;;;;1.35;98.60;100997.94;5071012;28;20033;-68
2021/12/11 05:25:15;;;;;;;45.20;27.70;;;;;;;1.36;99.12;101003.13;5058281;28;20036;-69
2021/12/11 05:27:42;;;;;;;43.83;27.25;;;;;;;1.38;99.24;101006.56;5056803;28;20043;-68
2021/12/11 05:30:21;;;;;;;45.38;27.63;;;;;;;1.38;99.29;101003.06;5064488;28;20035;-68
2021/12/11 05:32:47;;;;;;;46.55;28.30;;;;;;;1.40;99.12;100998.63;5070817;28;20036;-69
2021/12/11 05:35:13;;;;;;;44.88;27.40;;;;;;;1.42;98.90;101005.53;5070941;28;20394;-69
2021/12/11 05:37:39;;;;;;;42.17;26.33;;;;;;;1.45;99.04;101008.03;5070708;28;20031;-69
2021/12/11 05:40:07;;;;;;;43.72;27.17;;;;;;;1.46;99.45;101008.88;5048661;28;20025;-69
2021/12/11 05:42:33;;;;;;;45.40;27.60;;;;;;;1.48;99.11;101018.41;5051049;28;20033;-69
2021/12/11 05:44:59;;;;;;;44.85;27.60;;;;;;;1.50;99.27;101014.88;5069522;28;20062;-69
2021/12/11 05:47:24;;;;;;;44.25;27.85;;;;;;;1.50;99.58;101018.34;5064050;28;20114;-69
2021/12/11 05:49:50;;;;;;;43.28;27.75;;;;;;;1.52;99.32;101024.38;5067996;28;20397;-69
2021/12/11 05:52:16;;;;;;;40.70;26.13;;;;;;;1.53;99.92;101031.31;5070522;28;20025;-69
2021/12/11 05:54:46;;;;;;;43.13;26.23;;;;;;;1.55;99.57;101039.97;5056487;28;20032;-70
2021/12/11 05:57:12;;;;;;;;;;;;;;;1.60;99.35;101035.44;5061608;28;20216;-69
2021/12/11 05:59:40;;;;;;;43.60;26.27;;;;;;;1.58;99.40;101021.56;5067135;28;19908;-69
2021/12/11 06:02:19;;;;;;;41.17;25.33;;;;;;;1.61;99.82;101036.28;5064048;28;20040;-69
2021/12/11 06:04:47;;;;;;;47.90;26.17;;;;;;;1.60;99.71;101040.66;5067321;28;20041;-68
2021/12/11 06:07:14;;;;;;;45.78;28.45;;;;;;;1.63;100.00;101040.56;5068158;28;20442;-69
2021/12/11 06:09:42;;;;;;;40.65;26.23;;;;;;;1.63;99.71;101037.06;5044042;28;20059;-69
2021/12/11 06:12:11;;;;;;;43.10;27.65;;;;;;;1.60;99.94;101037.19;5068567;28;20028;-69
2021/12/11 06:14:37;;;;;;;40.80;25.70;;;;;;;1.64;99.87;101039.63;5060102;28;20033;-69
2021/12/11 06:17:05;;;;;;;41.83;27.92;;;;;;;1.63;100.00;101053.66;5064728;28;20379;-69
2021/12/11 06:19:32;;;;;;;43.33;28.98;;;;;;;1.66;100.00;101055.28;5068732;28;20032;-69
2021/12/11 06:21:58;;;;;;;44.35;27.80;;;;;;;1.67;99.81;101062.25;5050535;28;20124;-69
2021/12/11 06:24:25;;;;;;;44.67;28.48;;;;;;;1.65;100.00;101062.31;5030497;28;20032;-69
2021/12/11 06:26:51;;;;;;;47.00;29.92;;;;;;;1.68;100.00;101066.56;5030359;28;20088;-69
2021/12/11 06:29:17;;;;;;;46.85;30.15;;;;;;;1.69;100.00;101070.06;5030600;28;20029;-68
2021/12/11 06:31:44;;;;;;;51.75;32.08;;;;;;;1.71;100.00;101071.69;5029798;28;20441;-69
2021/12/11 06:34:11;;;;;;;59.13;33.58;;;;;;;1.72;100.00;101076.03;5030493;28;20553;-69
2021/12/11 06:36:36;;;;;;;62.40;35.03;;;;;;;1.75;100.00;101082.91;5030789;28;20426;-68
2021/12/11 06:39:07;;;;;;;59.50;34.75;;;;;;;1.73;100.00;101079.50;5030492;28;20026;-69
2021/12/11 06:41:37;;;;;;;67.70;35.88;;;;;;;1.79;100.00;101087.13;5030463;28;20038;-68
2021/12/11 06:44:03;;;;;;;71.53;38.08;;;;;;;1.80;100.00;101094.09;5030481;28;20166;-69
2021/12/11 06:46:31;;;;;;;68.88;37.92;;;;;;;1.83;100.00;101097.44;5030053;28;20033;-69
2021/12/11 06:48:56;;;;;;;75.05;39.58;;;;;;;1.85;100.00;101102.63;5030319;28;20471;-69
2021/12/11 06:51:22;;;;;;;74.82;40.92;;;;;;;1.89;100.00;101101.59;5030167;28;20072;-69
2021/12/11 06:53:52;;;;;;;78.05;41.60;;;;;;;1.92;100.00;101105.88;5042124;28;20487;-69
2021/12/11 06:56:19;;;;;;;70.53;40.17;;;;;;;1.95;100.00;101116.22;5061509;28;20115;-69
2021/12/11 06:58:44;;;;;;;72.88;42.78;;;;;;;1.99;100.00;101118.69;5069941;28;20492;-69
2021/12/11 07:01:12;;;;;;;69.50;38.97;;;;;;;2.00;100.00;101125.66;5069850;28;20107;-69
2021/12/11 07:03:38;;;;;;;70.05;39.50;;;;;;;2.04;100.00;101123.75;5063340;28;20037;-69
2021/12/11 07:06:05;;;;;;;68.32;40.75;;;;;;;2.09;100.00;101120.97;5053984;28;20030;-70
2021/12/11 07:08:31;;;;;;;68.25;42.03;;;;;;;2.14;100.00;101129.53;5054728;28;20059;-70
2021/12/11 07:10:58;;;;;;;72.07;40.42;;;;;;;2.14;100.00;101133.00;5038258;28;20036;-69
2021/12/11 07:13:24;;;;;;;72.68;40.22;;;;;;;2.18;100.00;101133.72;5047254;28;20032;-69
2021/12/11 07:15:50;;;;;;;68.50;40.67;;;;;;;2.20;100.00;101137.16;5033409;28;20021;-70
2021/12/11 07:18:15;;;;;;;61.25;38.90;;;;;;;2.24;100.00;101145.78;5041843;28;20025;-69
2021/12/11 07:20:40;;;;;;;61.95;38.10;;;;;;;2.25;100.00;101144.84;5038069;28;20565;-69
2021/12/11 07:23:06;;;;;;;63.60;39.97;;;;;;;2.29;100.00;101144.69;5058268;28;20025;-69
2021/12/11 07:25:47;;;;;;;64.28;37.03;;;;;;;2.30;100.00;101153.38;5067389;28;20463;-69
2021/12/11 07:28:13;;;;;;;57.75;37.13;;;;;;;2.32;100.00;101160.28;5062391;28;20040;-69
2021/12/11 07:30:41;;;;;;;61.40;35.42;;;;;;;2.35;100.00;101168.03;5042465;28;20029;-70
2021/12/11 07:33:07;;;;;;;55.70;35.27;;;;;;;2.37;100.00;101166.22;5044826;28;20076;-69
2021/12/11 07:35:35;;;;;;;56.85;33.88;;;;;;;2.38;100.00;101167.06;5054699;28;20451;-69
2021/12/11 07:38:00;;;;;;;55.08;32.83;;;;;;;2.43;100.00;101180.00;5054695;28;20048;-69
2021/12/11 07:40:30;;;;;;;52.17;31.23;;;;;;;2.44;100.00;101176.47;5056850;28;20045;-69
2021/12/11 07:42:56;;;;;;;47.47;30.65;;;;;;;2.48;100.00;101180.69;5056240;28;20090;-69
2021/12/11 07:45:24;;;;;;;53.25;30.67;;;;;;;2.50;100.00;101186.72;5049056;28;20068;-69
2021/12/11 07:47:49;;;;;;;49.05;28.88;;;;;;;2.53;100.00;101186.59;5054438;28;20095;-69
2021/12/11 07:50:15;;;;;;;46.00;28.38;;;;;;;2.55;100.00;101187.44;5071701;28;20466;-69
2021/12/11 07:52:41;;;;;;;46.42;27.00;;;;;;;2.59;100.00;101197.72;5058328;28;20052;-70
2021/12/11 07:55:06;;;;;;;49.83;27.30;;;;;;;2.62;100.00;101199.38;5036563;28;20468;-69
2021/12/11 07:57:31;;;;;;;43.65;25.88;;;;;;;2.65;100.00;101198.41;5037629;28;20498;-69
2021/12/11 07:59:57;;;;;;;41.88;24.63;;;;;;;2.69;100.00;101208.72;5054331;28;20021;-69
2021/12/11 08:02:22;;;;;;;39.13;23.20;;;;;;;2.72;100.00;101211.22;5042189;28;20052;-69
2021/12/11 08:04:48;;;;;;;39.90;22.83;;;;;;;2.75;100.00;101213.75;5067018;28;20044;-69
2021/12/11 08:07:13;;;;;;;43.83;21.58;;;;;;;2.79;100.00;101219.72;5063461;28;20055;-69
2021/12/11 08:09:39;;;;;;;40.08;20.75;;;;;;;2.82;100.00;101219.63;5041051;28;20522;-70
2021/12/11 08:12:05;;;;;;;38.58;19.83;;;;;;;2.85;100.00;101218.63;5041205;28;20033;-69
2021/12/11 08:14:30;;;;;;;40.85;18.33;;;;;;;2.87;100.00;101222.06;5060375;28;20039;-69
2021/12/11 08:16:58;;;;;;;40.88;18.17;;;;;;;2.92;100.00;101222.75;5057896;27;20036;-69
2021/12/11 08:19:26;;;;;;;38.15;16.98;;;;;;;2.94;100.00;101228.78;5068344;28;20103;-69
2021/12/11 08:21:54;;;;;;;34.08;16.42;;;;;;;2.96;100.00;101238.31;5060551;28;20413;-69
2021/12/11 08:24:21;;;;;;;40.15;15.60;;;;;;;3.01;100.00;101237.28;5040552;28;20048;-70
2021/12/11 08:26:49;;;;;;;35.20;13.90;;;;;;;3.01;100.00;101248.59;5040087;28;20026;-69
2021/12/11 08:29:15;;;;;;;29.95;13.10;;;;;;;3.02;100.00;101245.09;5036327;28;20021;-70
2021/12/11 08:31:43;;;;;;;27.95;12.32;;;;;;;3.05;100.00;101257.22;5033237;28;20033;-70
2021/12/11 08:34:09;;;;;;;36.47;11.38;;;;;;;3.07;100.00;101264.13;5046993;28;20067;-69
2021/12/11 08:36:35;;;;;;;38.40;10.43;;;;;;;3.12;100.00;101267.44;5071403;28;20098;-70
2021/12/11 08:39:01;;;;;;;30.50;10.45;;;;;;;3.17;100.00;101272.50;5068267;28;20049;-70
2021/12/11 08:41:29;;;;;;;31.23;10.15;;;;;;;3.21;100.00;101276.72;5064425;28;20020;-70
2021/12/11 08:44:00;;;;;;;34.25;9.05;;;;;;;3.25;100.00;101275.69;5056648;28;20498;-70
2021/12/11 08:46:30;;;;;;;23.80;8.70;;;;;;;3.31;100.00;101280.72;5035805;28;20177;-70
2021/12/11 08:49:02;;;;;;;28.70;8.85;;;;;;;3.33;100.00;101278.88;5034491;28;20131;-70
2021/12/11 08:51:39;;;;;;;27.45;7.82;;;;;;;3.42;100.00;101284.69;5033369;28;20041;-70
2021/12/11 08:54:06;;;;;;;28.50;8.07;;;;;;;3.49;100.00;101288.75;5033514;28;20037;-69
2021/12/11 08:56:34;;;;;;;24.38;7.32;;;;;;;3.53;100.00;101290.38;5032887;28;20454;-70
2021/12/11 08:58:59;;;;;;;26.80;7.32;;;;;;;3.59;100.00;101294.50;5030480;28;20293;-70
2021/12/11 09:01:33;;;;;;;25.52;7.13;;;;;;;3.67;100.00;101302.94;5035050;28;20585;-70
2021/12/11 09:04:07;;;;;;;23.45;6.93;;;;;;;3.72;100.00;101305.38;5037128;28;20509;-71
2021/12/11 09:06:49;;;;;;;30.98;6.40;;;;;;;3.80;100.00;101313.81;5037657;28;20099;-70
2021/12/11 09:09:46;;;;;;;28.65;6.53;;;;;;;3.91;100.00;101319.47;5035606;28;20049;-71
2021/12/11 09:12:19;;;;;;;25.60;6.03;;;;;;;3.99;100.00;101329.66;5046505;28;20041;-72
2021/12/11 09:14:51;;;;;;;16.95;5.13;;;;;;;4.04;100.00;101335.59;5032401;28;20041;-72
2021/12/11 09:17:25;;;;;;;23.70;5.38;;;;;;;4.08;100.00;101347.69;5044825;28;20037;-71
2021/12/11 09:19:59;;;;;;;19.40;4.97;;;;;;;4.13;100.00;101350.09;5049346;28;20033;-72
2021/12/11 09:22:35;;;;;;;24.02;5.13;;;;;;;4.22;100.00;101363.72;5056121;28;20093;-72
2021/12/11 09:25:10;;;;;;;23.10;5.35;;;;;;;4.29;100.00;101359.06;5052819;28;20032;-72
2021/12/11 09:27:44;;;;;;;20.67;5.00;;;;;;;4.38;100.00;101363.97;5043875;28;20523;-71
2021/12/11 09:30:23;;;;;;;25.63;5.60;;;;;;;4.47;100.00;101375.84;5046170;28;20056;-72
2021/12/11 09:32:54;;;;;;;18.85;5.35;;;;;;;4.53;100.00;101374.72;5032390;28;20069;-72
2021/12/11 09:35:25;;;;;;;19.38;4.40;;;;;;;4.67;100.00;101384.69;5060566;28;20056;-73
2021/12/11 09:37:55;;;;;;;21.60;4.90;;;;;;;4.78;100.00;101390.31;5042223;28;20055;-73
2021/12/11 09:40:38;;;;;;;21.63;5.55;;;;;;;4.89;100.00;101397.75;5047622;28;20108;-72
2021/12/11 09:43:04;;;;;;;20.40;4.65;;;;;;;4.94;100.00;101399.25;5033402;28;20056;-69
2021/12/11 09:45:51;;;;;;;18.57;4.40;;;;;;;4.99;100.00;101406.94;5023173;28;20052;-73
2021/12/11 09:48:19;;;;;;;20.17;4.88;;;;;;;5.07;100.00;101403.97;5032831;28;20045;-71
2021/12/11 09:50:54;;;;;;;25.10;4.55;;;;;;;5.08;100.00;101410.94;5056508;28;20539;-72
2021/12/11 09:53:24;;;;;;;17.02;4.10;;;;;;;5.11;99.78;101422.22;5055484;28;20103;-72
2021/12/11 09:55:49;;;;;;;;;;;;;;;5.18;99.91;101421.00;5063293;28;20103;-72
2021/12/11 09:58:22;;;;;;;22.25;4.55;;;;;;;5.15;99.62;101418.50;5060399;28;20012;-73
2021/12/11 10:01:10;;;;;;;18.52;4.60;;;;;;;5.21;99.71;101433.16;5059984;28;20028;-73
2021/12/11 10:03:45;;;;;;;18.95;4.90;;;;;;;5.25;99.58;101440.03;5040502;28;20467;-71
2021/12/11 10:06:27;;;;;;;15.25;4.68;;;;;;;5.27;99.10;101437.31;5037811;28;20034;-72
2021/12/11 10:09:17;;;;;;;19.65;4.47;;;;;;;5.28;98.62;101442.53;5050040;28;20044;-72
2021/12/11 10:11:42;;;;;;;19.52;4.70;;;;;;;5.30;98.36;101447.72;5047713;28;20132;-68
2021/12/11 10:14:12;;;;;;;18.45;4.32;;;;;;;5.31;98.12;101455.56;5060203;28;20103;-71
2021/12/11 10:16:43;;;;;;;17.77;4.35;;;;;;;5.31;97.96;101452.06;5055811;28;20135;-72
2021/12/11 10:19:11;;;;;;;15.23;4.03;;;;;;;5.33;97.87;101455.50;5035818;28;20486;-72
2021/12/11 10:21:47;;;;;;;23.85;4.65;;;;;;;5.35;97.86;101457.13;5047868;28;20048;-71
2021/12/11 10:24:18;;;;;;;15.95;4.20;;;;;;;5.34;97.55;101463.31;5040132;28;20034;-72
2021/12/11 10:26:44;;;;;;;17.13;5.30;;;;;;;5.39;97.58;101460.47;5061174;28;20431;-73
2021/12/11 10:29:12;;;;;;;18.05;4.65;;;;;;;5.42;97.13;101465.59;5062659;28;20037;-72
2021/12/11 10:31:45;;;;;;;18.45;5.75;;;;;;;5.44;97.02;101465.53;5059470;28;20039;-72
2021/12/11 10:34:18;;;;;;;23.85;5.40;;;;;;;5.47;96.89;101462.75;5069449;28;20498;-71
2021/12/11 10:36:52;;;;;;;14.05;4.72;;;;;;;5.54;97.02;101470.31;5052006;28;20069;-71
2021/12/11 10:39:18;;;;;;;18.30;5.55;;;;;;;5.56;96.92;101475.50;5050645;28;20018;-72
2021/12/11 10:41:45;;;;;;;17.65;4.97;;;;;;;5.61;96.78;101481.41;5030305;28;20103;-72
2021/12/11 10:44:14;;;;;;;16.83;5.13;;;;;;;5.67;96.55;101483.78;5064062;28;20028;-71
2021/12/11 10:46:42;;;;;;;;;;;;;;;5.72;97.03;101484.44;5031651;28;20052;-72
2021/12/11 10:49:10;;;;;;;14.57;5.78;;;;;;;5.73;95.95;101487.94;5038751;28;19913;-72
2021/12/11 10:51:44;;;;;;;19.05;5.40;;;;;;;5.77;95.59;101499.19;5043523;28;20040;-72
2021/12/11 10:54:13;;;;;;;17.17;5.20;;;;;;;5.84;96.15;101503.25;5037658;28;20036;-73
2021/12/11 10:56:39;;;;;;;18.02;6.05;;;;;;;5.88;95.41;101496.91;5042971;28;20037;-72
2021/12/11 10:59:16;;;;;;;15.60;5.32;;;;;;;5.95;95.65;101508.88;5064711;28;20030;-72
2021/12/11 11:01:55;;;;;;;17.52;4.82;;;;;;;5.96;95.46;101502.69;5045887;28;20048;-72
2021/12/11 11:04:26;;;;;;;;;;;;;;;6.05;95.97;101514.63;5054031;28;20371;-72
2021/12/11 11:06:52;;;;;;;13.75;3.83;;;;;;;6.03;95.30;101524.34;5054663;28;19916;-70
2021/12/11 11:09:22;;;;;;;22.50;4.72;;;;;;;6.02;94.80;101523.50;5051922;28;20419;-71
2021/12/11 11:11:48;;;;;;;;;;;;;;;6.08;95.63;101525.88;5075081;28;20024;-71
2021/12/11 11:14:15;;;;;;;19.63;4.88;;;;;;;6.09;95.73;101538.13;5073403;28;19912;-71
2021/12/11 11:16:44;;;;;;;15.65;4.18;;;;;;;6.06;94.61;101532.13;5060233;28;20028;-71
2021/12/11 11:19:10;;;;;;;19.33;4.55;;;;;;;6.05;94.70;101536.56;5055762;28;20546;-71
2021/12/11 11:21:42;;;;;;;17.52;4.03;;;;;;;6.06;93.68;101540.91;5073019;28;20029;-71
2021/12/11 11:24:09;;;;;;;17.10;4.80;;;;;;;6.07;94.06;101550.53;5067332;28;20052;-71
2021/12/11 11:26:38;;;;;;;19.92;4.47;;;;;;;6.07;94.42;101550.53;5068946;28;20028;-71
2021/12/11 11:29:10;;;;;;;10.27;3.87;;;;;;;6.11;94.35;101548.59;5058059;28;20029;-71
2021/12/11 11:31:39;;;;;;;15.40;4.57;;;;;;;6.10;93.56;101550.38;5054930;28;20029;-71
2021/12/11 11:34:08;;;;;;;17.17;5.05;;;;;;;6.12;93.93;101547.69;5049259;28;20024;-71
2021/12/11 11:36:34;;;;;;;16.65;3.78;;;;;;;6.14;93.63;101556.38;5065454;28;20532;-71
2021/12/11 11:39:05;;;;;;;18.70;4.50;;;;;;;6.11;93.96;101557.38;5059634;28;20486;-71
2021/12/11 11:41:35;;;;;;;15.48;4.88;;;;;;;6.17;93.60;101572.06;5047789;28;20040;-72